sensor_id;sensor_type;location;lat;lon;timestamp;temperature;humidity
7163;DHT22;3623;47.098;15.446;2023-12-20T00:02:17;3.00;99.90
7163;DHT22;3623;47.098;15.446;2023-12-20T00:04:45;3.00;99.90
7163;DHT22;3623;47.098;15.446;2023-12-20T00:07:13;3.00;99.90
7163;DHT22;3623;47.098;15.446;2023-12-20T00:09:40;3.00;99.90
7163;DHT22;3623;47.098;15.446;2023-12-20T00:12:08;3.00;99.90
7163;DHT22;3623;47.098;15.446;2023-12-20T00:14:36;2.90;99.90
7163;DHT22;3623;47.098;15.446;2023-12-20T00:17:03;3.00;99.90
7163;DHT22;3623;47.098;15.446;2023-12-20T00:19:30;2.90;99.90
7163;DHT22;3623;47.098;15.446;2023-12-20T00:21:58;2.90;99.90
7163;DHT22;3623;47.098;15.446;2023-12-20T00:24:27;2.90;99.90
7163;DHT22;3623;47.098;15.446;2023-12-20T00:26:54;2.90;99.90
7163;DHT22;3623;47.098;15.446;2023-12-20T00:29:22;2.80;99.90
7163;DHT22;3623;47.098;15.446;2023-12-20T00:31:49;2.80;99.90
7163;DHT22;3623;47.098;15.446;2023-12-20T00:34:16;2.80;99.90
7163;DHT22;3623;47.098;15.446;2023-12-20T00:36:43;2.90;99.90
7163;DHT22;3623;47.098;15.446;2023-12-20T00:39:10;2.80;99.90
7163;DHT22;3623;47.098;15.446;2023-12-20T00:41:39;2.80;99.90
7163;DHT22;3623;47.098;15.446;2023-12-20T00:44:07;2.80;99.90
7163;DHT22;3623;47.098;15.446;2023-12-20T00:46:34;2.80;99.90
7163;DHT22;3623;47.098;15.446;2023-12-20T00:49:01;2.80;99.90
7163;DHT22;3623;47.098;15.446;2023-12-20T00:51:28;2.70;99.90
7163;DHT22;3623;47.098;15.446;2023-12-20T00:53:55;2.70;99.90
7163;DHT22;3623;47.098;15.446;2023-12-20T00:56:22;2.60;99.90
7163;DHT22;3623;47.098;15.446;2023-12-20T00:58:51;2.60;99.90
7163;DHT22;3623;47.098;15.446;2023-12-20T01:01:18;2.50;99.90
7163;DHT22;3623;47.098;15.446;2023-12-20T01:03:45;2.50;99.90
7163;DHT22;3623;47.098;15.446;2023-12-20T01:06:13;2.50;99.90
7163;DHT22;3623;47.098;15.446;2023-12-20T01:08:41;2.50;99.90
7163;DHT22;3623;47.098;15.446;2023-12-20T01:11:08;2.50;99.90
7163;DHT22;3623;47.098;15.446;2023-12-20T01:13:35;2.40;99.90
7163;DHT22;3623;47.098;15.446;2023-12-20T01:16:05;2.40;99.90
7163;DHT22;3623;47.098;15.446;2023-12-20T01:18:32;2.40;99.90
7163;DHT22;3623;47.098;15.446;2023-12-20T01:21:01;2.40;99.90
7163;DHT22;3623;47.098;15.446;2023-12-20T01:23:30;2.40;99.90
7163;DHT22;3623;47.098;15.446;2023-12-20T01:25:58;2.40;99.90
7163;DHT22;3623;47.098;15.446;2023-12-20T01:28:26;2.50;99.90
7163;DHT22;3623;47.098;15.446;2023-12-20T01:30:52;2.50;99.90
7163;DHT22;3623;47.098;15.446;2023-12-20T01:33:21;2.50;99.90
7163;DHT22;3623;47.098;15.446;2023-12-20T01:35:48;2.50;99.90
7163;DHT22;3623;47.098;15.446;2023-12-20T01:38:16;2.40;99.90
7163;DHT22;3623;47.098;15.446;2023-12-20T01:40:44;2.40;99.90
7163;DHT22;3623;47.098;15.446;2023-12-20T01:43:11;2.40;99.90
7163;DHT22;3623;47.098;15.446;2023-12-20T01:45:39;2.40;99.90
7163;DHT22;3623;47.098;15.446;2023-12-20T01:48:07;2.40;99.90
7163;DHT22;3623;47.098;15.446;2023-12-20T01:50:36;2.40;99.90
7163;DHT22;3623;47.098;15.446;2023-12-20T01:53:05;2.30;99.90
7163;DHT22;3623;47.098;15.446;2023-12-20T01:55:35;2.50;99.90
7163;DHT22;3623;47.098;15.446;2023-12-20T01:58:04;2.40;99.90
7163;DHT22;3623;47.098;15.446;2023-12-20T02:00:31;2.40;99.90
7163;DHT22;3623;47.098;15.446;2023-12-20T02:03:01;2.20;99.90
7163;DHT22;3623;47.098;15.446;2023-12-20T02:05:29;2.20;99.90
7163;DHT22;3623;47.098;15.446;2023-12-20T02:07:58;2.20;99.90
7163;DHT22;3623;47.098;15.446;2023-12-20T02:10:25;2.20;99.90
7163;DHT22;3623;47.098;15.446;2023-12-20T02:12:53;2.20;99.90
7163;DHT22;3623;47.098;15.446;2023-12-20T02:15:20;2.30;99.90
7163;DHT22;3623;47.098;15.446;2023-12-20T02:17:47;2.20;99.90
7163;DHT22;3623;47.098;15.446;2023-12-20T02:20:15;2.20;99.90
7163;DHT22;3623;47.098;15.446;2023-12-20T02:22:43;2.20;99.90
7163;DHT22;3623;47.098;15.446;2023-12-20T02:25:11;2.30;99.90
7163;DHT22;3623;47.098;15.446;2023-12-20T02:27:38;2.30;99.90
7163;DHT22;3623;47.098;15.446;2023-12-20T02:30:07;2.30;99.90
7163;DHT22;3623;47.098;15.446;2023-12-20T02:32:34;2.10;99.90
7163;DHT22;3623;47.098;15.446;2023-12-20T02:35:01;2.40;99.90
7163;DHT22;3623;47.098;15.446;2023-12-20T02:37:28;2.40;99.90
7163;DHT22;3623;47.098;15.446;2023-12-20T02:39:57;2.40;99.90
7163;DHT22;3623;47.098;15.446;2023-12-20T02:42:24;2.60;99.90
7163;DHT22;3623;47.098;15.446;2023-12-20T02:44:51;2.50;99.90
7163;DHT22;3623;47.098;15.446;2023-12-20T02:47:18;2.50;99.90
7163;DHT22;3623;47.098;15.446;2023-12-20T02:49:45;2.50;99.90
7163;DHT22;3623;47.098;15.446;2023-12-20T02:52:13;2.50;99.90
7163;DHT22;3623;47.098;15.446;2023-12-20T02:54:40;2.50;99.90
7163;DHT22;3623;47.098;15.446;2023-12-20T02:57:08;2.50;99.90
7163;DHT22;3623;47.098;15.446;2023-12-20T02:59:35;2.50;99.90
7163;DHT22;3623;47.098;15.446;2023-12-20T03:02:03;2.50;99.90
7163;DHT22;3623;47.098;15.446;2023-12-20T03:04:30;2.50;99.90
7163;DHT22;3623;47.098;15.446;2023-12-20T03:06:57;2.50;99.90
7163;DHT22;3623;47.098;15.446;2023-12-20T03:09:24;2.60;99.90
7163;DHT22;3623;47.098;15.446;2023-12-20T03:11:51;2.60;99.90
7163;DHT22;3623;47.098;15.446;2023-12-20T03:14:20;2.60;99.90
7163;DHT22;3623;47.098;15.446;2023-12-20T03:16:48;2.50;99.90
7163;DHT22;3623;47.098;15.446;2023-12-20T03:19:17;2.50;99.90
7163;DHT22;3623;47.098;15.446;2023-12-20T03:21:44;2.40;99.90
7163;DHT22;3623;47.098;15.446;2023-12-20T03:24:11;2.40;99.90
7163;DHT22;3623;47.098;15.446;2023-12-20T03:26:39;2.30;99.90
7163;DHT22;3623;47.098;15.446;2023-12-20T03:29:06;2.40;99.90
7163;DHT22;3623;47.098;15.446;2023-12-20T03:31:34;2.30;99.90
7163;DHT22;3623;47.098;15.446;2023-12-20T03:34:01;2.40;99.90
7163;DHT22;3623;47.098;15.446;2023-12-20T03:36:28;2.40;99.90
7163;DHT22;3623;47.098;15.446;2023-12-20T03:38:56;2.40;99.90
7163;DHT22;3623;47.098;15.446;2023-12-20T03:41:23;2.70;99.90
7163;DHT22;3623;47.098;15.446;2023-12-20T03:43:50;2.40;99.90
7163;DHT22;3623;47.098;15.446;2023-12-20T03:46:17;2.40;99.90
7163;DHT22;3623;47.098;15.446;2023-12-20T03:48:45;2.40;99.90
7163;DHT22;3623;47.098;15.446;2023-12-20T03:51:13;2.40;99.90
7163;DHT22;3623;47.098;15.446;2023-12-20T03:53:40;2.60;99.90
7163;DHT22;3623;47.098;15.446;2023-12-20T03:56:07;2.30;99.90
7163;DHT22;3623;47.098;15.446;2023-12-20T03:58:34;2.30;99.90
7163;DHT22;3623;47.098;15.446;2023-12-20T04:01:01;2.30;99.90
7163;DHT22;3623;47.098;15.446;2023-12-20T04:03:29;2.30;99.90
7163;DHT22;3623;47.098;15.446;2023-12-20T04:05:58;2.30;99.90
7163;DHT22;3623;47.098;15.446;2023-12-20T04:08:25;2.30;99.90
7163;DHT22;3623;47.098;15.446;2023-12-20T04:10:52;2.20;99.90
7163;DHT22;3623;47.098;15.446;2023-12-20T04:13:19;2.20;99.90
7163;DHT22;3623;47.098;15.446;2023-12-20T04:15:46;2.20;99.90
7163;DHT22;3623;47.098;15.446;2023-12-20T04:18:16;2.20;99.90
7163;DHT22;3623;47.098;15.446;2023-12-20T04:20:43;2.20;99.90
7163;DHT22;3623;47.098;15.446;2023-12-20T04:23:11;2.20;99.90
7163;DHT22;3623;47.098;15.446;2023-12-20T04:25:39;2.20;99.90
7163;DHT22;3623;47.098;15.446;2023-12-20T04:28:06;2.30;99.90
7163;DHT22;3623;47.098;15.446;2023-12-20T04:30:33;2.20;99.90
7163;DHT22;3623;47.098;15.446;2023-12-20T04:33:00;2.20;99.90
7163;DHT22;3623;47.098;15.446;2023-12-20T04:35:28;2.20;99.90
7163;DHT22;3623;47.098;15.446;2023-12-20T04:37:55;2.20;99.90
7163;DHT22;3623;47.098;15.446;2023-12-20T04:40:24;2.20;99.90
7163;DHT22;3623;47.098;15.446;2023-12-20T04:42:51;2.20;99.90
7163;DHT22;3623;47.098;15.446;2023-12-20T04:45:18;2.10;99.90
7163;DHT22;3623;47.098;15.446;2023-12-20T04:47:45;2.10;99.90
7163;DHT22;3623;47.098;15.446;2023-12-20T04:50:13;2.10;99.90
7163;DHT22;3623;47.098;15.446;2023-12-20T04:52:41;2.10;99.90
7163;DHT22;3623;47.098;15.446;2023-12-20T04:55:09;2.10;99.90
7163;DHT22;3623;47.098;15.446;2023-12-20T04:57:37;2.10;99.90
7163;DHT22;3623;47.098;15.446;2023-12-20T05:00:06;2.20;99.90
7163;DHT22;3623;47.098;15.446;2023-12-20T05:02:35;2.10;99.90
7163;DHT22;3623;47.098;15.446;2023-12-20T05:05:02;2.10;99.90
7163;DHT22;3623;47.098;15.446;2023-12-20T05:07:30;2.10;99.90
7163;DHT22;3623;47.098;15.446;2023-12-20T05:09:57;2.10;99.90
7163;DHT22;3623;47.098;15.446;2023-12-20T05:12:24;2.10;99.90
7163;DHT22;3623;47.098;15.446;2023-12-20T05:14:52;2.20;99.90
7163;DHT22;3623;47.098;15.446;2023-12-20T05:17:20;2.20;99.90
7163;DHT22;3623;47.098;15.446;2023-12-20T05:19:47;2.30;99.90
7163;DHT22;3623;47.098;15.446;2023-12-20T05:22:14;2.20;99.90
7163;DHT22;3623;47.098;15.446;2023-12-20T05:24:41;2.20;99.90
7163;DHT22;3623;47.098;15.446;2023-12-20T05:27:08;2.30;99.90
7163;DHT22;3623;47.098;15.446;2023-12-20T05:29:35;2.30;99.90
7163;DHT22;3623;47.098;15.446;2023-12-20T05:32:05;2.30;99.90
7163;DHT22;3623;47.098;15.446;2023-12-20T05:34:32;2.20;99.90
7163;DHT22;3623;47.098;15.446;2023-12-20T05:36:59;2.20;99.90
7163;DHT22;3623;47.098;15.446;2023-12-20T05:39:27;2.10;99.90
7163;DHT22;3623;47.098;15.446;2023-12-20T05:41:54;2.10;99.90
7163;DHT22;3623;47.098;15.446;2023-12-20T05:44:22;2.10;99.90
7163;DHT22;3623;47.098;15.446;2023-12-20T05:46:49;2.10;99.90
7163;DHT22;3623;47.098;15.446;2023-12-20T05:49:18;2.10;99.90
7163;DHT22;3623;47.098;15.446;2023-12-20T05:51:45;2.10;99.90
7163;DHT22;3623;47.098;15.446;2023-12-20T05:54:12;2.20;99.90
7163;DHT22;3623;47.098;15.446;2023-12-20T05:56:39;2.30;99.90
7163;DHT22;3623;47.098;15.446;2023-12-20T05:59:08;2.30;99.90
7163;DHT22;3623;47.098;15.446;2023-12-20T06:01:35;2.40;99.90
7163;DHT22;3623;47.098;15.446;2023-12-20T06:04:02;2.40;99.90
7163;DHT22;3623;47.098;15.446;2023-12-20T06:06:31;2.40;99.90
7163;DHT22;3623;47.098;15.446;2023-12-20T06:08:58;2.50;99.90
7163;DHT22;3623;47.098;15.446;2023-12-20T06:11:26;2.50;99.90
7163;DHT22;3623;47.098;15.446;2023-12-20T06:13:53;2.60;99.90
7163;DHT22;3623;47.098;15.446;2023-12-20T06:16:21;2.70;99.90
7163;DHT22;3623;47.098;15.446;2023-12-20T06:18:48;2.70;99.90
7163;DHT22;3623;47.098;15.446;2023-12-20T06:21:15;2.80;99.90
7163;DHT22;3623;47.098;15.446;2023-12-20T06:23:44;2.80;99.90
7163;DHT22;3623;47.098;15.446;2023-12-20T06:26:12;2.80;99.90
7163;DHT22;3623;47.098;15.446;2023-12-20T06:28:39;2.90;99.90
7163;DHT22;3623;47.098;15.446;2023-12-20T06:31:06;2.80;99.90
7163;DHT22;3623;47.098;15.446;2023-12-20T06:33:34;2.90;99.90
7163;DHT22;3623;47.098;15.446;2023-12-20T06:36:01;2.90;99.90
7163;DHT22;3623;47.098;15.446;2023-12-20T06:38:29;3.00;99.90
7163;DHT22;3623;47.098;15.446;2023-12-20T06:40:57;3.00;99.90
7163;DHT22;3623;47.098;15.446;2023-12-20T06:43:25;3.10;99.90
7163;DHT22;3623;47.098;15.446;2023-12-20T06:45:52;3.10;99.90
7163;DHT22;3623;47.098;15.446;2023-12-20T06:48:19;3.20;99.90
7163;DHT22;3623;47.098;15.446;2023-12-20T06:50:46;3.20;99.90
7163;DHT22;3623;47.098;15.446;2023-12-20T06:53:13;3.30;99.90
7163;DHT22;3623;47.098;15.446;2023-12-20T06:55:41;3.30;99.90
7163;DHT22;3623;47.098;15.446;2023-12-20T06:58:09;3.40;99.90
7163;DHT22;3623;47.098;15.446;2023-12-20T07:00:36;3.40;99.90
7163;DHT22;3623;47.098;15.446;2023-12-20T07:03:04;3.40;99.90
7163;DHT22;3623;47.098;15.446;2023-12-20T07:05:31;3.40;99.90
7163;DHT22;3623;47.098;15.446;2023-12-20T07:07:59;3.40;99.90
7163;DHT22;3623;47.098;15.446;2023-12-20T07:10:26;3.40;99.90
7163;DHT22;3623;47.098;15.446;2023-12-20T07:12:53;3.50;99.90
7163;DHT22;3623;47.098;15.446;2023-12-20T07:15:22;3.50;99.90
7163;DHT22;3623;47.098;15.446;2023-12-20T07:17:49;3.60;99.90
7163;DHT22;3623;47.098;15.446;2023-12-20T07:20:16;3.60;99.90
7163;DHT22;3623;47.098;15.446;2023-12-20T07:22:44;3.70;99.90
7163;DHT22;3623;47.098;15.446;2023-12-20T07:25:11;3.80;99.90
7163;DHT22;3623;47.098;15.446;2023-12-20T07:27:38;3.80;99.90
7163;DHT22;3623;47.098;15.446;2023-12-20T07:30:07;3.90;99.90
7163;DHT22;3623;47.098;15.446;2023-12-20T07:32:36;4.00;99.90
7163;DHT22;3623;47.098;15.446;2023-12-20T07:35:03;4.00;99.90
7163;DHT22;3623;47.098;15.446;2023-12-20T07:37:31;4.00;99.90
7163;DHT22;3623;47.098;15.446;2023-12-20T07:39:58;4.10;99.90
7163;DHT22;3623;47.098;15.446;2023-12-20T07:42:25;4.00;99.90
7163;DHT22;3623;47.098;15.446;2023-12-20T07:44:52;4.10;99.90
7163;DHT22;3623;47.098;15.446;2023-12-20T07:47:21;4.10;99.90
7163;DHT22;3623;47.098;15.446;2023-12-20T07:49:49;4.10;99.90
7163;DHT22;3623;47.098;15.446;2023-12-20T07:52:17;4.10;99.90
7163;DHT22;3623;47.098;15.446;2023-12-20T07:54:45;4.20;99.90
7163;DHT22;3623;47.098;15.446;2023-12-20T07:57:12;4.20;99.90
7163;DHT22;3623;47.098;15.446;2023-12-20T07:59:39;4.30;99.90
7163;DHT22;3623;47.098;15.446;2023-12-20T08:02:06;4.30;99.90
7163;DHT22;3623;47.098;15.446;2023-12-20T08:04:34;4.30;99.90
7163;DHT22;3623;47.098;15.446;2023-12-20T08:07:03;4.40;99.90
7163;DHT22;3623;47.098;15.446;2023-12-20T08:09:30;4.40;99.90
7163;DHT22;3623;47.098;15.446;2023-12-20T08:11:59;4.40;99.90
7163;DHT22;3623;47.098;15.446;2023-12-20T08:14:26;4.70;99.90
7163;DHT22;3623;47.098;15.446;2023-12-20T08:16:54;4.80;99.90
7163;DHT22;3623;47.098;15.446;2023-12-20T08:19:21;4.80;99.90
7163;DHT22;3623;47.098;15.446;2023-12-20T08:21:48;4.90;99.90
7163;DHT22;3623;47.098;15.446;2023-12-20T08:24:17;4.90;99.90
7163;DHT22;3623;47.098;15.446;2023-12-20T08:26:44;4.80;99.90
7163;DHT22;3623;47.098;15.446;2023-12-20T08:29:13;4.90;99.90
7163;DHT22;3623;47.098;15.446;2023-12-20T08:31:40;5.00;99.90
7163;DHT22;3623;47.098;15.446;2023-12-20T08:34:07;5.20;99.90
7163;DHT22;3623;47.098;15.446;2023-12-20T08:36:34;5.30;99.90
7163;DHT22;3623;47.098;15.446;2023-12-20T08:39:01;5.40;99.90
7163;DHT22;3623;47.098;15.446;2023-12-20T08:41:33;5.40;99.90
7163;DHT22;3623;47.098;15.446;2023-12-20T08:44:00;5.50;99.90
7163;DHT22;3623;47.098;15.446;2023-12-20T08:46:27;5.70;99.90
7163;DHT22;3623;47.098;15.446;2023-12-20T08:48:54;5.80;99.90
7163;DHT22;3623;47.098;15.446;2023-12-20T08:51:22;6.00;99.90
7163;DHT22;3623;47.098;15.446;2023-12-20T08:53:51;6.10;99.90
7163;DHT22;3623;47.098;15.446;2023-12-20T08:56:18;6.10;99.90
7163;DHT22;3623;47.098;15.446;2023-12-20T08:58:47;6.10;99.90
7163;DHT22;3623;47.098;15.446;2023-12-20T09:01:14;6.10;99.90
7163;DHT22;3623;47.098;15.446;2023-12-20T09:03:41;6.10;99.90
7163;DHT22;3623;47.098;15.446;2023-12-20T09:06:08;6.10;99.90
7163;DHT22;3623;47.098;15.446;2023-12-20T09:08:36;6.00;99.90
7163;DHT22;3623;47.098;15.446;2023-12-20T09:11:03;6.00;99.90
7163;DHT22;3623;47.098;15.446;2023-12-20T09:13:30;6.00;99.90
7163;DHT22;3623;47.098;15.446;2023-12-20T09:15:59;6.00;99.90
7163;DHT22;3623;47.098;15.446;2023-12-20T09:18:26;6.10;99.90
7163;DHT22;3623;47.098;15.446;2023-12-20T09:20:54;6.10;99.90
7163;DHT22;3623;47.098;15.446;2023-12-20T09:23:21;6.20;99.90
7163;DHT22;3623;47.098;15.446;2023-12-20T09:25:48;6.30;99.90
7163;DHT22;3623;47.098;15.446;2023-12-20T09:28:15;6.30;99.90
7163;DHT22;3623;47.098;15.446;2023-12-20T09:30:42;6.30;99.90
7163;DHT22;3623;47.098;15.446;2023-12-20T09:33:12;6.20;99.90
7163;DHT22;3623;47.098;15.446;2023-12-20T09:35:40;6.30;99.90
7163;DHT22;3623;47.098;15.446;2023-12-20T09:38:07;6.30;99.90
7163;DHT22;3623;47.098;15.446;2023-12-20T09:40:35;6.30;99.90
7163;DHT22;3623;47.098;15.446;2023-12-20T09:43:04;6.40;99.90
7163;DHT22;3623;47.098;15.446;2023-12-20T09:45:35;6.40;99.90
7163;DHT22;3623;47.098;15.446;2023-12-20T09:48:04;6.30;99.90
7163;DHT22;3623;47.098;15.446;2023-12-20T09:50:33;6.30;99.90
7163;DHT22;3623;47.098;15.446;2023-12-20T09:53:02;6.30;99.90
7163;DHT22;3623;47.098;15.446;2023-12-20T09:55:32;6.40;99.90
7163;DHT22;3623;47.098;15.446;2023-12-20T09:58:00;6.50;99.90
7163;DHT22;3623;47.098;15.446;2023-12-20T10:00:27;6.70;99.90
7163;DHT22;3623;47.098;15.446;2023-12-20T10:02:57;6.90;99.90
7163;DHT22;3623;47.098;15.446;2023-12-20T10:05:27;6.90;99.90
7163;DHT22;3623;47.098;15.446;2023-12-20T10:07:55;7.10;99.90
7163;DHT22;3623;47.098;15.446;2023-12-20T10:10:23;7.30;99.90
7163;DHT22;3623;47.098;15.446;2023-12-20T10:13:04;7.20;99.90
7163;DHT22;3623;47.098;15.446;2023-12-20T10:15:32;7.20;99.90
7163;DHT22;3623;47.098;15.446;2023-12-20T10:17:59;7.20;99.90
7163;DHT22;3623;47.098;15.446;2023-12-20T10:20:27;7.10;99.90
7163;DHT22;3623;47.098;15.446;2023-12-20T10:22:57;6.90;99.90
7163;DHT22;3623;47.098;15.446;2023-12-20T10:25:24;6.80;99.90
7163;DHT22;3623;47.098;15.446;2023-12-20T10:28:09;6.80;99.90
7163;DHT22;3623;47.098;15.446;2023-12-20T10:30:36;6.80;99.90
7163;DHT22;3623;47.098;15.446;2023-12-20T10:33:05;7.00;99.90
7163;DHT22;3623;47.098;15.446;2023-12-20T10:35:33;7.20;99.90
7163;DHT22;3623;47.098;15.446;2023-12-20T10:38:04;7.30;99.90
7163;DHT22;3623;47.098;15.446;2023-12-20T10:40:34;7.40;99.90
7163;DHT22;3623;47.098;15.446;2023-12-20T10:43:04;7.50;99.90
7163;DHT22;3623;47.098;15.446;2023-12-20T10:45:31;7.50;99.90
7163;DHT22;3623;47.098;15.446;2023-12-20T10:47:58;7.50;99.90
7163;DHT22;3623;47.098;15.446;2023-12-20T10:50:27;7.40;99.90
7163;DHT22;3623;47.098;15.446;2023-12-20T10:52:55;7.30;99.90
7163;DHT22;3623;47.098;15.446;2023-12-20T10:55:24;7.30;99.90
7163;DHT22;3623;47.098;15.446;2023-12-20T10:57:52;7.20;99.90
7163;DHT22;3623;47.098;15.446;2023-12-20T11:00:23;7.10;99.90
7163;DHT22;3623;47.098;15.446;2023-12-20T11:02:50;7.00;99.90
7163;DHT22;3623;47.098;15.446;2023-12-20T11:05:28;6.90;99.90
7163;DHT22;3623;47.098;15.446;2023-12-20T11:08:02;6.90;99.90
7163;DHT22;3623;47.098;15.446;2023-12-20T11:10:38;6.90;99.90
7163;DHT22;3623;47.098;15.446;2023-12-20T11:13:16;6.90;99.90
7163;DHT22;3623;47.098;15.446;2023-12-20T11:15:44;7.00;99.90
7163;DHT22;3623;47.098;15.446;2023-12-20T11:18:12;7.00;99.90
7163;DHT22;3623;47.098;15.446;2023-12-20T11:20:40;7.00;99.90
7163;DHT22;3623;47.098;15.446;2023-12-20T11:23:08;7.10;99.90
7163;DHT22;3623;47.098;15.446;2023-12-20T11:25:52;7.10;99.90
7163;DHT22;3623;47.098;15.446;2023-12-20T11:28:21;7.20;99.90
7163;DHT22;3623;47.098;15.446;2023-12-20T11:30:51;7.20;99.90
7163;DHT22;3623;47.098;15.446;2023-12-20T11:33:21;7.20;99.90
7163;DHT22;3623;47.098;15.446;2023-12-20T11:35:49;7.30;99.90
7163;DHT22;3623;47.098;15.446;2023-12-20T11:38:16;7.30;99.90
7163;DHT22;3623;47.098;15.446;2023-12-20T11:40:44;7.40;99.90
7163;DHT22;3623;47.098;15.446;2023-12-20T11:43:29;7.50;99.90
7163;DHT22;3623;47.098;15.446;2023-12-20T11:46:02;7.70;99.90
7163;DHT22;3623;47.098;15.446;2023-12-20T11:48:30;7.80;99.90
7163;DHT22;3623;47.098;15.446;2023-12-20T11:50:58;8.00;99.90
7163;DHT22;3623;47.098;15.446;2023-12-20T11:53:26;8.20;99.90
7163;DHT22;3623;47.098;15.446;2023-12-20T11:55:55;8.30;99.90
7163;DHT22;3623;47.098;15.446;2023-12-20T11:58:25;8.40;99.90
7163;DHT22;3623;47.098;15.446;2023-12-20T12:00:55;8.60;99.90
7163;DHT22;3623;47.098;15.446;2023-12-20T12:03:23;8.80;99.90
7163;DHT22;3623;47.098;15.446;2023-12-20T12:05:52;8.80;99.90
7163;DHT22;3623;47.098;15.446;2023-12-20T12:08:20;8.90;99.90
7163;DHT22;3623;47.098;15.446;2023-12-20T12:10:48;8.90;99.90
7163;DHT22;3623;47.098;15.446;2023-12-20T12:13:16;9.00;99.90
7163;DHT22;3623;47.098;15.446;2023-12-20T12:15:46;8.80;99.90
7163;DHT22;3623;47.098;15.446;2023-12-20T12:18:16;8.70;99.90
7163;DHT22;3623;47.098;15.446;2023-12-20T12:20:43;8.60;99.90
7163;DHT22;3623;47.098;15.446;2023-12-20T12:23:12;8.60;99.90
7163;DHT22;3623;47.098;15.446;2023-12-20T12:25:39;8.60;99.90
7163;DHT22;3623;47.098;15.446;2023-12-20T12:28:07;8.50;99.90
7163;DHT22;3623;47.098;15.446;2023-12-20T12:30:36;8.40;99.90
7163;DHT22;3623;47.098;15.446;2023-12-20T12:33:05;8.50;99.90
7163;DHT22;3623;47.098;15.446;2023-12-20T12:35:32;8.30;99.90
7163;DHT22;3623;47.098;15.446;2023-12-20T12:38:00;8.30;99.90
7163;DHT22;3623;47.098;15.446;2023-12-20T12:40:29;8.20;99.90
7163;DHT22;3623;47.098;15.446;2023-12-20T12:42:57;8.20;99.90
7163;DHT22;3623;47.098;15.446;2023-12-20T12:45:28;8.10;99.90
7163;DHT22;3623;47.098;15.446;2023-12-20T12:47:56;8.10;99.90
7163;DHT22;3623;47.098;15.446;2023-12-20T12:50:26;8.20;99.90
7163;DHT22;3623;47.098;15.446;2023-12-20T12:52:55;8.10;99.90
7163;DHT22;3623;47.098;15.446;2023-12-20T12:55:24;8.10;99.90
7163;DHT22;3623;47.098;15.446;2023-12-20T12:57:52;8.10;99.90
7163;DHT22;3623;47.098;15.446;2023-12-20T13:00:20;8.10;99.90
7163;DHT22;3623;47.098;15.446;2023-12-20T13:02:50;8.10;99.90
7163;DHT22;3623;47.098;15.446;2023-12-20T13:05:24;8.30;99.90
7163;DHT22;3623;47.098;15.446;2023-12-20T13:07:54;8.30;99.90
7163;DHT22;3623;47.098;15.446;2023-12-20T13:10:22;8.30;99.90
7163;DHT22;3623;47.098;15.446;2023-12-20T13:12:49;8.40;99.90
7163;DHT22;3623;47.098;15.446;2023-12-20T13:15:17;8.40;99.90
7163;DHT22;3623;47.098;15.446;2023-12-20T13:17:45;8.40;99.90
7163;DHT22;3623;47.098;15.446;2023-12-20T13:20:14;8.70;99.90
7163;DHT22;3623;47.098;15.446;2023-12-20T13:22:44;9.00;99.90
7163;DHT22;3623;47.098;15.446;2023-12-20T13:25:14;9.10;99.90
7163;DHT22;3623;47.098;15.446;2023-12-20T13:27:42;9.20;99.90
7163;DHT22;3623;47.098;15.446;2023-12-20T13:30:11;9.40;99.90
7163;DHT22;3623;47.098;15.446;2023-12-20T13:32:39;9.30;99.90
7163;DHT22;3623;47.098;15.446;2023-12-20T13:35:07;9.20;99.90
7163;DHT22;3623;47.098;15.446;2023-12-20T13:37:35;9.10;99.90
7163;DHT22;3623;47.098;15.446;2023-12-20T13:40:04;9.00;99.90
7163;DHT22;3623;47.098;15.446;2023-12-20T13:42:35;8.80;99.90
7163;DHT22;3623;47.098;15.446;2023-12-20T13:45:03;8.60;99.90
7163;DHT22;3623;47.098;15.446;2023-12-20T13:47:31;8.60;99.90
7163;DHT22;3623;47.098;15.446;2023-12-20T13:49:59;8.50;99.90
7163;DHT22;3623;47.098;15.446;2023-12-20T13:52:27;8.50;99.90
7163;DHT22;3623;47.098;15.446;2023-12-20T13:54:55;8.30;99.90
7163;DHT22;3623;47.098;15.446;2023-12-20T13:57:23;8.30;99.90
7163;DHT22;3623;47.098;15.446;2023-12-20T13:59:52;8.10;99.90
7163;DHT22;3623;47.098;15.446;2023-12-20T14:02:21;8.10;99.90
7163;DHT22;3623;47.098;15.446;2023-12-20T14:04:49;8.10;99.90
7163;DHT22;3623;47.098;15.446;2023-12-20T14:07:17;7.80;99.90
7163;DHT22;3623;47.098;15.446;2023-12-20T14:09:44;7.80;99.90
7163;DHT22;3623;47.098;15.446;2023-12-20T14:12:12;7.80;99.90
7163;DHT22;3623;47.098;15.446;2023-12-20T14:14:39;7.80;99.90
7163;DHT22;3623;47.098;15.446;2023-12-20T14:17:09;8.00;99.90
7163;DHT22;3623;47.098;15.446;2023-12-20T14:19:36;7.90;99.90
7163;DHT22;3623;47.098;15.446;2023-12-20T14:22:04;7.70;99.90
7163;DHT22;3623;47.098;15.446;2023-12-20T14:24:32;7.60;99.90
7163;DHT22;3623;47.098;15.446;2023-12-20T14:27:00;7.50;99.90
7163;DHT22;3623;47.098;15.446;2023-12-20T14:29:27;7.50;99.90
7163;DHT22;3623;47.098;15.446;2023-12-20T14:31:54;7.50;99.90
7163;DHT22;3623;47.098;15.446;2023-12-20T14:34:24;7.40;99.90
7163;DHT22;3623;47.098;15.446;2023-12-20T14:36:51;7.30;99.90
7163;DHT22;3623;47.098;15.446;2023-12-20T14:39:19;7.30;99.90
7163;DHT22;3623;47.098;15.446;2023-12-20T14:41:47;7.20;99.90
7163;DHT22;3623;47.098;15.446;2023-12-20T14:44:14;7.10;99.90
7163;DHT22;3623;47.098;15.446;2023-12-20T14:46:42;7.00;99.90
7163;DHT22;3623;47.098;15.446;2023-12-20T14:49:09;7.10;99.90
7163;DHT22;3623;47.098;15.446;2023-12-20T14:51:38;7.00;99.90
7163;DHT22;3623;47.098;15.446;2023-12-20T14:54:06;7.10;99.90
7163;DHT22;3623;47.098;15.446;2023-12-20T14:56:35;7.10;99.90
7163;DHT22;3623;47.098;15.446;2023-12-20T14:59:02;7.10;99.90
7163;DHT22;3623;47.098;15.446;2023-12-20T15:01:29;7.20;99.90
7163;DHT22;3623;47.098;15.446;2023-12-20T15:03:56;7.20;99.90
7163;DHT22;3623;47.098;15.446;2023-12-20T15:06:24;7.20;99.90
7163;DHT22;3623;47.098;15.446;2023-12-20T15:08:54;7.30;99.90
7163;DHT22;3623;47.098;15.446;2023-12-20T15:11:21;7.30;99.90
7163;DHT22;3623;47.098;15.446;2023-12-20T15:13:49;7.20;99.90
7163;DHT22;3623;47.098;15.446;2023-12-20T15:16:21;7.00;99.90
7163;DHT22;3623;47.098;15.446;2023-12-20T15:18:48;6.80;99.90
7163;DHT22;3623;47.098;15.446;2023-12-20T15:21:16;6.70;99.90
7163;DHT22;3623;47.098;15.446;2023-12-20T15:23:44;6.60;99.90
7163;DHT22;3623;47.098;15.446;2023-12-20T15:26:19;6.50;99.90
7163;DHT22;3623;47.098;15.446;2023-12-20T15:28:47;6.40;99.90
7163;DHT22;3623;47.098;15.446;2023-12-20T15:31:14;6.20;99.90
7163;DHT22;3623;47.098;15.446;2023-12-20T15:33:41;6.20;99.90
7163;DHT22;3623;47.098;15.446;2023-12-20T15:36:08;6.20;99.90
7163;DHT22;3623;47.098;15.446;2023-12-20T15:38:35;6.20;99.90
7163;DHT22;3623;47.098;15.446;2023-12-20T15:41:03;6.20;99.90
7163;DHT22;3623;47.098;15.446;2023-12-20T15:43:31;6.30;99.90
7163;DHT22;3623;47.098;15.446;2023-12-20T15:45:58;6.40;99.90
7163;DHT22;3623;47.098;15.446;2023-12-20T15:48:26;6.40;99.90
7163;DHT22;3623;47.098;15.446;2023-12-20T15:50:56;6.30;99.90
7163;DHT22;3623;47.098;15.446;2023-12-20T15:53:24;6.30;99.90
7163;DHT22;3623;47.098;15.446;2023-12-20T15:55:52;6.20;99.90
7163;DHT22;3623;47.098;15.446;2023-12-20T15:58:19;6.10;99.90
7163;DHT22;3623;47.098;15.446;2023-12-20T16:00:49;5.90;99.90
7163;DHT22;3623;47.098;15.446;2023-12-20T16:03:16;5.60;99.90
7163;DHT22;3623;47.098;15.446;2023-12-20T16:05:44;5.50;99.90
7163;DHT22;3623;47.098;15.446;2023-12-20T16:08:11;5.40;99.90